Time;durP1;ratioP1;P1;durP2;ratioP2;P2;SDS_P1;SDS_P2;PMS_P1;PMS_P2;Temp;Humidity;BMP_temperature;BMP_pressure;BME280_temperature;BME280_humidity;BME280_pressure;Samples;Min_cycle;Max_cycle;Signal;HPM_P1;HPM_P2
2020/12/14 00:00:33;;;;;;;0.88;0.70;;;8.30;85.10;;;;;;5040170;28;20035;-78
2020/12/14 00:02:59;;;;;;;0.65;0.65;;;8.30;85.10;;;;;;5044983;28;20029;-78
2020/12/14 00:05:25;;;;;;;0.68;0.52;;;8.30;85.10;;;;;;5053967;28;20013;-78
2020/12/14 00:07:51;;;;;;;0.63;0.63;;;8.30;85.10;;;;;;5054545;28;20025;-78
2020/12/14 00:10:17;;;;;;;0.55;0.55;;;8.30;85.00;;;;;;5051330;28;20036;-79
2020/12/14 00:12:42;;;;;;;0.70;0.70;;;8.40;85.10;;;;;;5052996;28;20029;-78
2020/12/14 00:15:08;;;;;;;0.80;0.80;;;8.40;85.00;;;;;;5054437;28;20021;-79
2020/12/14 00:17:34;;;;;;;0.50;0.50;;;8.40;85.10;;;;;;5054488;28;20029;-78
2020/12/14 00:20:00;;;;;;;0.68;0.65;;;8.40;85.00;;;;;;5053934;28;20033;-78
2020/12/14 00:22:29;;;;;;;0.50;0.50;;;8.40;84.90;;;;;;5054535;28;20086;-79
2020/12/14 00:24:55;;;;;;;0.52;0.52;;;8.50;84.90;;;;;;5051012;28;20052;-79
2020/12/14 00:27:21;;;;;;;0.60;0.60;;;8.50;84.90;;;;;;5032806;28;20133;-78
2020/12/14 00:29:46;;;;;;;0.88;0.88;;;8.50;84.90;;;;;;5034024;28;20029;-77
2020/12/14 00:32:12;;;;;;;1.58;0.68;;;8.50;84.80;;;;;;5034349;28;20013;-79
2020/12/14 00:34:37;;;;;;;0.60;0.60;;;8.50;84.80;;;;;;5034081;28;20375;-77
2020/12/14 00:37:03;;;;;;;1.88;1.13;;;8.50;85.40;;;;;;5048819;28;20114;-79
2020/12/14 00:39:29;;;;;;;0.60;0.60;;;8.50;84.70;;;;;;5052090;28;20059;-78
2020/12/14 00:41:54;;;;;;;0.45;0.43;;;8.60;84.80;;;;;;5051933;28;20060;-78
2020/12/14 00:44:20;;;;;;;0.60;0.60;;;8.50;84.70;;;;;;5053616;28;20662;-77
2020/12/14 00:46:46;;;;;;;0.60;0.60;;;8.50;84.70;;;;;;5052562;28;20029;-78
2020/12/14 00:49:12;;;;;;;0.50;0.50;;;8.60;84.70;;;;;;5052694;28;20086;-78
2020/12/14 00:51:38;;;;;;;0.40;0.40;;;8.60;84.70;;;;;;5053176;28;20083;-78
2020/12/14 00:54:04;;;;;;;0.47;0.47;;;8.60;84.60;;;;;;5053837;28;20021;-78
2020/12/14 00:56:29;;;;;;;0.57;0.57;;;8.60;84.50;;;;;;5052496;28;20024;-76
2020/12/14 00:58:55;;;;;;;0.50;0.50;;;8.70;84.70;;;;;;5052664;28;20405;-77
2020/12/14 01:01:20;;;;;;;0.80;0.80;;;8.70;84.60;;;;;;5053855;28;20045;-78
2020/12/14 01:03:46;;;;;;;0.38;0.38;;;8.70;84.50;;;;;;5054013;28;20351;-78
2020/12/14 01:06:12;;;;;;;0.73;0.68;;;8.70;84.50;;;;;;5051288;28;20025;-78
2020/12/14 01:08:40;;;;;;;0.85;0.80;;;8.70;84.50;;;;;;5052924;28;20039;-78
2020/12/14 01:11:06;;;;;;;0.50;0.47;;;8.70;84.40;;;;;;5051590;28;20025;-78
2020/12/14 01:13:32;;;;;;;0.80;0.47;;;8.80;84.50;;;;;;5051607;28;20386;-78
2020/12/14 01:15:57;;;;;;;0.60;0.60;;;8.70;84.30;;;;;;5053581;28;20047;-78
2020/12/14 01:18:23;;;;;;;0.47;0.47;;;8.80;84.40;;;;;;5051483;28;20423;-80
2020/12/14 01:20:48;;;;;;;0.68;0.68;;;8.70;84.30;;;;;;5052464;28;20078;-78
2020/12/14 01:23:14;;;;;;;0.43;0.43;;;8.80;84.40;;;;;;5052529;28;20040;-78
2020/12/14 01:25:40;;;;;;;0.60;0.57;;;8.80;84.40;;;;;;5052007;28;20063;-78
2020/12/14 01:28:06;;;;;;;0.40;0.40;;;8.80;84.40;;;;;;5053279;28;20467;-78
2020/12/14 01:30:33;;;;;;;0.40;0.40;;;8.80;84.40;;;;;;5040331;28;20026;-78
2020/12/14 01:32:59;;;;;;;0.55;0.55;;;8.80;84.40;;;;;;5033296;28;20030;-79
2020/12/14 01:35:25;;;;;;;0.60;0.60;;;8.80;84.30;;;;;;5033014;28;20398;-79
2020/12/14 01:37:51;;;;;;;0.60;0.60;;;8.80;84.30;;;;;;5033005;28;20036;-78
2020/12/14 01:40:18;;;;;;;0.45;0.45;;;8.80;85.00;;;;;;5044527;28;20101;-78
2020/12/14 01:42:48;;;;;;;0.47;0.40;;;8.80;84.40;;;;;;5052627;28;20136;-79
2020/12/14 01:45:15;;;;;;;0.70;0.70;;;8.80;84.30;;;;;;5053274;28;20055;-78
2020/12/14 01:47:45;;;;;;;0.57;0.57;;;8.90;84.40;;;;;;5051751;28;20116;-77
2020/12/14 01:50:12;;;;;;;0.50;0.50;;;8.90;84.30;;;;;;5053678;28;20036;-78
2020/12/14 01:52:43;;;;;;;0.60;0.60;;;8.90;84.30;;;;;;5053882;28;20021;-77
2020/12/14 01:55:11;;;;;;;0.52;0.52;;;8.90;84.30;;;;;;5052071;28;20025;-78
2020/12/14 01:57:37;;;;;;;0.50;0.50;;;8.90;84.30;;;;;;5052194;28;20039;-78
2020/12/14 02:00:10;;;;;;;0.70;0.70;;;8.90;84.30;;;;;;5053300;28;20021;-77
2020/12/14 02:02:36;;;;;;;0.60;0.60;;;8.90;84.30;;;;;;5053133;28;20083;-78
2020/12/14 02:05:03;;;;;;;0.50;0.50;;;8.90;84.20;;;;;;5053073;28;20036;-77
2020/12/14 02:07:29;;;;;;;0.50;0.50;;;9.00;84.30;;;;;;5052887;28;20013;-78
2020/12/14 02:09:55;;;;;;;1.13;0.70;;;9.00;84.20;;;;;;5050425;28;20122;-77
2020/12/14 02:12:25;;;;;;;0.38;0.38;;;9.00;84.20;;;;;;5052779;28;20022;-77
2020/12/14 02:14:55;;;;;;;0.40;0.40;;;9.00;84.20;;;;;;5052842;28;20025;-77
2020/12/14 02:17:21;;;;;;;0.52;0.52;;;9.00;84.10;;;;;;5053165;28;20063;-77
2020/12/14 02:19:48;;;;;;;0.63;0.47;;;9.00;84.10;;;;;;5055080;28;20211;-78
2020/12/14 02:22:16;;;;;;;0.40;0.40;;;9.00;84.10;;;;;;5056340;28;20090;-77
2020/12/14 02:24:45;;;;;;;0.60;0.55;;;9.00;84.10;;;;;;5055982;28;20021;-76
2020/12/14 02:27:14;;;;;;;0.50;0.47;;;9.00;84.10;;;;;;5050425;28;20021;-76
2020/12/14 02:29:43;;;;;;;0.57;0.57;;;9.00;84.10;;;;;;5036678;28;20025;-78
2020/12/14 02:32:11;;;;;;;0.50;0.50;;;9.00;84.10;;;;;;5036791;28;20030;-77
2020/12/14 02:34:40;;;;;;;0.60;0.60;;;9.00;84.20;;;;;;5036560;28;20033;-77
2020/12/14 02:37:12;;;;;;;0.40;0.40;;;9.00;84.20;;;;;;5036366;28;20060;-78
2020/12/14 02:39:39;;;;;;;1.27;0.52;;;9.00;84.30;;;;;;5036064;28;20041;-78
2020/12/14 02:42:10;;;;;;;0.50;0.50;;;9.00;84.30;;;;;;5035427;28;20057;-77
2020/12/14 02:44:36;;;;;;;0.47;0.40;;;9.00;84.20;;;;;;5036122;28;20026;-77
2020/12/14 02:47:02;;;;;;;0.60;0.50;;;9.00;84.10;;;;;;5035820;28;20021;-77
2020/12/14 02:49:28;;;;;;;0.50;0.50;;;9.10;84.20;;;;;;5035952;28;20053;-77
2020/12/14 02:51:54;;;;;;;0.50;0.50;;;9.10;84.20;;;;;;5035970;28;20459;-77
2020/12/14 02:54:20;;;;;;;0.50;0.50;;;9.00;84.10;;;;;;5036167;28;20037;-78
2020/12/14 02:56:45;;;;;;;0.63;0.63;;;9.10;84.20;;;;;;5049151;28;20032;-77
2020/12/14 02:59:13;;;;;;;0.50;0.50;;;9.10;84.20;;;;;;5056163;28;20056;-78
2020/12/14 03:01:38;;;;;;;0.70;0.70;;;9.10;84.20;;;;;;5055931;28;20032;-76
2020/12/14 03:04:05;;;;;;;0.70;0.57;;;9.00;84.90;;;;;;5056362;28;20033;-78
2020/12/14 03:06:31;;;;;;;0.50;0.50;;;9.00;84.30;;;;;;5055663;28;20039;-78
2020/12/14 03:08:56;;;;;;;0.40;0.40;;;9.00;84.40;;;;;;5056388;28;20037;-77
2020/12/14 03:11:22;;;;;;;0.52;0.52;;;9.00;84.40;;;;;;5054310;28;20496;-77
2020/12/14 03:13:48;;;;;;;0.40;0.40;;;9.00;84.50;;;;;;5055365;28;20025;-78
2020/12/14 03:16:13;;;;;;;0.50;0.50;;;9.00;84.50;;;;;;5053239;28;20127;-78
2020/12/14 03:18:39;;;;;;;0.50;0.50;;;9.00;84.50;;;;;;5035656;28;20025;-78
2020/12/14 03:21:08;;;;;;;0.60;0.60;;;8.90;84.50;;;;;;5035237;28;20096;-77
2020/12/14 03:23:34;;;;;;;0.85;0.50;;;9.00;84.60;;;;;;5035475;28;20029;-77
2020/12/14 03:26:00;;;;;;;0.40;0.40;;;9.00;85.20;;;;;;5034395;28;20018;-77
2020/12/14 03:28:25;;;;;;;0.40;0.40;;;9.00;84.60;;;;;;5035218;28;20041;-78
2020/12/14 03:30:51;;;;;;;0.50;0.47;;;9.00;84.60;;;;;;5034771;28;20067;-77
2020/12/14 03:33:18;;;;;;;1.40;0.75;;;9.00;84.50;;;;;;5035261;28;20379;-77
2020/12/14 03:35:45;;;;;;;0.40;0.40;;;9.00;84.60;;;;;;5035255;28;20029;-77
2020/12/14 03:38:11;;;;;;;0.88;0.82;;;9.00;84.60;;;;;;5035978;28;20435;-77
2020/12/14 03:40:36;;;;;;;0.70;0.70;;;9.00;84.70;;;;;;5034346;28;20040;-78
2020/12/14 03:43:03;;;;;;;0.70;0.50;;;9.00;84.80;;;;;;5035237;28;20463;-77
2020/12/14 03:45:29;;;;;;;0.40;0.40;;;9.00;84.80;;;;;;5035516;28;20521;-77
2020/12/14 03:47:55;;;;;;;0.50;0.50;;;9.00;84.80;;;;;;5035626;28;20053;-77
2020/12/14 03:50:20;;;;;;;0.70;0.70;;;9.00;84.90;;;;;;5035158;28;20018;-78
2020/12/14 03:52:46;;;;;;;0.60;0.60;;;8.90;84.80;;;;;;5036034;28;20072;-78
2020/12/14 03:55:13;;;;;;;0.88;0.60;;;8.90;85.00;;;;;;5035142;28;20036;-78
2020/12/14 03:57:38;;;;;;;0.40;0.40;;;8.90;85.10;;;;;;5054854;28;20032;-78
2020/12/14 04:00:06;;;;;;;0.70;0.70;;;8.90;85.20;;;;;;5054956;28;20018;-79
2020/12/14 04:02:32;;;;;;;0.50;0.50;;;8.80;85.20;;;;;;5054838;28;20445;-78
2020/12/14 04:04:57;;;;;;;0.30;0.30;;;8.80;85.20;;;;;;5054561;28;20025;-77
2020/12/14 04:07:23;;;;;;;0.43;0.40;;;8.90;85.30;;;;;;5036897;28;20125;-78
2020/12/14 04:09:48;;;;;;;0.30;0.30;;;8.90;85.30;;;;;;5033776;28;20545;-76
2020/12/14 04:12:14;;;;;;;0.47;0.47;;;8.90;85.30;;;;;;5034802;28;20021;-78
2020/12/14 04:14:40;;;;;;;0.50;0.50;;;8.80;85.30;;;;;;5034548;28;20459;-78
2020/12/14 04:17:06;;;;;;;0.50;0.43;;;8.90;85.40;;;;;;5034693;28;20021;-78
2020/12/14 04:19:31;;;;;;;0.40;0.40;;;8.90;85.40;;;;;;5034946;28;20026;-78
2020/12/14 04:21:59;;;;;;;0.40;0.40;;;8.90;85.40;;;;;;5034157;28;20025;-78
2020/12/14 04:24:26;;;;;;;0.60;0.60;;;8.90;85.40;;;;;;5034563;28;20030;-78
2020/12/14 04:26:53;;;;;;;0.40;0.40;;;8.90;85.40;;;;;;5033538;28;20033;-78
2020/12/14 04:29:19;;;;;;;0.50;0.50;;;8.90;85.50;;;;;;5034523;28;20421;-78
2020/12/14 04:31:49;;;;;;;0.70;0.70;;;8.90;85.50;;;;;;5034217;28;20043;-79
2020/12/14 04:34:15;;;;;;;0.50;0.50;;;8.90;85.60;;;;;;5032963;28;20109;-78
2020/12/14 04:36:44;;;;;;;0.52;0.52;;;8.90;85.60;;;;;;5034769;28;20052;-77
2020/12/14 04:39:11;;;;;;;0.40;0.40;;;8.90;85.70;;;;;;5034395;28;20340;-77
2020/12/14 04:41:37;;;;;;;0.63;0.63;;;8.90;85.70;;;;;;5032241;28;20018;-78
2020/12/14 04:44:03;;;;;;;0.50;0.50;;;8.90;85.80;;;;;;5034326;28;20067;-78
2020/12/14 04:46:29;;;;;;;0.77;0.77;;;8.90;85.70;;;;;;5034125;28;20053;-78
2020/12/14 04:48:55;;;;;;;0.32;0.32;;;8.90;85.70;;;;;;5034111;28;20084;-78
2020/12/14 04:51:22;;;;;;;0.47;0.45;;;8.90;85.70;;;;;;5033916;28;20025;-78
2020/12/14 04:53:47;;;;;;;0.50;0.50;;;8.90;85.70;;;;;;5032739;28;20375;-78
2020/12/14 04:56:25;;;;;;;0.50;0.50;;;8.90;85.80;;;;;;5042515;28;20017;-78
2020/12/14 04:58:52;;;;;;;0.50;0.50;;;8.90;85.80;;;;;;5055872;28;20482;-79
2020/12/14 05:01:18;;;;;;;0.47;0.47;;;8.90;86.00;;;;;;5058588;28;20025;-79
2020/12/14 05:03:43;;;;;;;0.55;0.55;;;8.90;86.00;;;;;;5053247;28;20036;-78
2020/12/14 05:06:09;;;;;;;1.77;0.55;;;9.00;86.10;;;;;;5053949;28;20022;-78
2020/12/14 05:08:34;;;;;;;0.70;0.70;;;8.90;86.00;;;;;;5053944;28;20037;-79
2020/12/14 05:11:00;;;;;;;0.40;0.40;;;8.90;86.10;;;;;;5053057;28;20017;-77
2020/12/14 05:13:26;;;;;;;0.52;0.52;;;8.90;86.10;;;;;;5053501;28;20388;-79
2020/12/14 05:15:52;;;;;;;0.30;0.30;;;8.90;86.10;;;;;;5053395;28;20025;-78
2020/12/14 05:18:24;;;;;;;0.55;0.40;;;8.90;86.20;;;;;;5053818;28;20112;-78
2020/12/14 05:21:01;;;;;;;0.57;0.57;;;9.00;86.20;;;;;;5052204;28;20067;-78
2020/12/14 05:23:28;;;;;;;0.50;0.50;;;9.00;86.20;;;;;;5052385;28;20024;-79
2020/12/14 05:26:09;;;;;;;0.40;0.40;;;9.00;86.20;;;;;;5052527;28;20052;-79
2020/12/14 05:28:38;;;;;;;0.50;0.50;;;9.00;86.20;;;;;;5053740;28;20068;-79
2020/12/14 05:31:04;;;;;;;0.55;0.55;;;9.00;86.30;;;;;;5053288;28;20040;-79
2020/12/14 05:33:31;;;;;;;0.57;0.57;;;9.00;86.30;;;;;;5053660;28;20025;-79
2020/12/14 05:35:57;;;;;;;0.30;0.30;;;9.00;86.30;;;;;;5053585;28;20311;-79
2020/12/14 05:38:28;;;;;;;0.50;0.50;;;9.00;86.30;;;;;;5046117;28;20099;-78
2020/12/14 05:40:59;;;;;;;0.52;0.52;;;9.00;86.30;;;;;;5050212;28;20458;-79
2020/12/14 05:43:29;;;;;;;0.40;0.40;;;9.00;86.40;;;;;;5053528;28;20103;-82
2020/12/14 05:45:56;;;;;;;0.40;0.40;;;9.00;86.50;;;;;;5053322;28;20025;-79
2020/12/14 05:48:30;;;;;;;0.57;0.57;;;9.00;86.50;;;;;;5050595;28;20136;-79
2020/12/14 05:51:01;;;;;;;0.82;0.82;;;9.00;86.50;;;;;;5034039;28;20040;-79
2020/12/14 05:53:32;;;;;;;0.38;0.38;;;9.00;86.50;;;;;;5035655;28;20475;-78
2020/12/14 05:55:59;;;;;;;0.50;0.50;;;9.00;86.50;;;;;;5042428;28;20021;-79
2020/12/14 05:58:28;;;;;;;0.40;0.40;;;9.00;86.50;;;;;;5056678;28;20093;-79
2020/12/14 06:00:55;;;;;;;0.43;0.43;;;9.10;86.50;;;;;;5050041;28;20030;-79
2020/12/14 06:03:23;;;;;;;1.08;0.50;;;9.10;86.50;;;;;;5037248;28;20025;-78
2020/12/14 06:05:57;;;;;;;0.40;0.40;;;9.10;86.50;;;;;;5035440;28;20068;-79
2020/12/14 06:08:23;;;;;;;0.50;0.40;;;9.10;86.50;;;;;;5045803;28;20053;-79
2020/12/14 06:10:51;;;;;;;0.50;0.50;;;9.10;86.50;;;;;;5056084;28;20085;-78
2020/12/14 06:13:29;;;;;;;0.50;0.50;;;9.10;86.50;;;;;;5056759;28;20059;-79
2020/12/14 06:16:00;;;;;;;0.50;0.50;;;9.10;86.60;;;;;;5055394;28;20078;-79
2020/12/14 06:18:32;;;;;;;0.50;0.50;;;9.10;86.60;;;;;;5056049;28;20079;-79
2020/12/14 06:20:59;;;;;;;0.63;0.60;;;9.10;86.70;;;;;;5054859;28;20021;-79
2020/12/14 06:23:26;;;;;;;0.40;0.40;;;9.10;86.70;;;;;;5057158;28;20175;-79
2020/12/14 06:25:52;;;;;;;0.60;0.60;;;9.10;86.70;;;;;;5055855;28;20067;-79
2020/12/14 06:28:28;;;;;;;0.50;0.50;;;9.10;86.70;;;;;;5056843;28;20098;-79
2020/12/14 06:30:54;;;;;;;0.47;0.47;;;9.10;86.70;;;;;;5055490;28;20060;-79
2020/12/14 06:33:39;;;;;;;0.50;0.50;;;9.10;86.70;;;;;;5053803;28;20056;-78
2020/12/14 06:36:22;;;;;;;0.50;0.50;;;9.10;86.70;;;;;;5036758;28;20029;-80
2020/12/14 06:38:52;;;;;;;0.60;0.60;;;9.10;86.70;;;;;;5049052;28;20029;-79
2020/12/14 06:41:22;;;;;;;0.40;0.40;;;9.10;86.80;;;;;;5036247;28;20112;-80
2020/12/14 06:44:07;;;;;;;0.60;0.60;;;9.10;87.40;;;;;;5058032;28;20037;-77
2020/12/14 06:46:35;;;;;;;0.80;0.80;;;9.10;86.90;;;;;;5054324;28;20021;-79
2020/12/14 06:49:02;;;;;;;0.50;0.50;;;9.10;86.90;;;;;;5054666;28;20060;-78
2020/12/14 06:51:49;;;;;;;0.50;0.50;;;9.10;86.90;;;;;;5052106;28;20373;-82
2020/12/14 06:54:44;;;;;;;0.65;0.65;;;9.10;86.80;;;;;;5054137;28;20025;-82
2020/12/14 06:57:15;;;;;;;0.85;0.57;;;9.10;86.80;;;;;;5055738;28;20017;-82
2020/12/14 06:59:49;;;;;;;0.43;0.43;;;9.10;86.90;;;;;;5066743;28;20047;-82
2020/12/14 07:02:14;;;;;;;0.57;0.57;;;9.10;86.90;;;;;;5059348;28;20025;-82
2020/12/14 07:04:41;;;;;;;0.40;0.40;;;9.10;86.90;;;;;;5055920;28;20027;-80
2020/12/14 07:07:07;;;;;;;0.60;0.60;;;9.10;86.90;;;;;;5056586;28;20116;-82
2020/12/14 07:09:41;;;;;;;0.73;0.70;;;9.10;87.00;;;;;;5055029;28;20112;-83
2020/12/14 07:12:09;;;;;;;0.38;0.38;;;9.10;87.00;;;;;;5044709;28;20013;-81
2020/12/14 07:14:57;;;;;;;0.73;0.73;;;9.20;87.10;;;;;;5053856;28;20028;-85
2020/12/14 07:17:29;;;;;;;0.60;0.60;;;9.20;87.00;;;;;;5036150;28;20462;-82
2020/12/14 07:19:56;;;;;;;0.60;0.60;;;9.20;87.10;;;;;;5051454;28;20031;-87
2020/12/14 07:22:24;;;;;;;0.70;0.70;;;9.20;87.10;;;;;;5055839;28;20028;-85
2020/12/14 07:25:00;;;;;;;0.50;0.50;;;9.20;87.20;;;;;;5054287;28;20021;-82
2020/12/14 07:27:27;;;;;;;0.55;0.55;;;9.20;87.20;;;;;;5045924;28;20092;-82
2020/12/14 07:30:06;;;;;;;0.35;0.35;;;9.20;87.20;;;;;;5046576;28;20035;-82
2020/12/14 07:32:32;;;;;;;0.55;0.55;;;9.20;87.20;;;;;;5054588;28;20037;-78
2020/12/14 07:34:58;;;;;;;0.73;0.73;;;9.20;87.20;;;;;;5054311;28;20017;-79
2020/12/14 07:37:24;;;;;;;0.70;0.60;;;9.20;87.20;;;;;;5054376;28;20230;-80
2020/12/14 07:39:51;;;;;;;0.68;0.60;;;9.20;87.20;;;;;;5053891;28;20131;-80
2020/12/14 07:42:46;;;;;;;0.70;0.70;;;9.20;87.20;;;;;;5049803;28;20097;-80
2020/12/14 07:45:19;;;;;;;0.80;0.80;;;9.30;87.10;;;;;;5053835;28;20406;-77
2020/12/14 07:47:47;;;;;;;0.65;0.60;;;9.30;87.20;;;;;;5052232;28;20016;-77
2020/12/14 07:50:19;;;;;;;0.50;0.50;;;9.30;87.20;;;;;;5053236;28;20025;-78
2020/12/14 07:52:46;;;;;;;0.50;0.50;;;9.30;87.30;;;;;;5053326;28;20033;-78
2020/12/14 07:55:13;;;;;;;0.45;0.45;;;9.30;87.30;;;;;;5052919;28;20025;-77
2020/12/14 07:57:41;;;;;;;1.40;0.80;;;9.40;87.30;;;;;;5052085;28;20048;-78
2020/12/14 08:00:09;;;;;;;0.45;0.45;;;9.40;87.20;;;;;;5056322;28;20419;-79
2020/12/14 08:02:35;;;;;;;0.45;0.45;;;9.40;87.20;;;;;;5050871;28;20034;-78
2020/12/14 08:05:06;;;;;;;0.57;0.57;;;9.40;87.20;;;;;;5054248;28;20044;-79
2020/12/14 08:07:44;;;;;;;0.50;0.50;;;9.40;87.20;;;;;;5051384;28;20032;-78
2020/12/14 08:10:11;;;;;;;0.90;0.90;;;9.40;87.30;;;;;;5052523;28;20025;-78
2020/12/14 08:12:39;;;;;;;0.40;0.40;;;9.40;87.20;;;;;;5041660;28;20028;-79
2020/12/14 08:15:17;;;;;;;0.85;0.70;;;9.50;87.20;;;;;;5053665;28;20098;-79
2020/12/14 08:17:44;;;;;;;0.60;0.60;;;9.50;87.20;;;;;;5054356;28;20053;-81
2020/12/14 08:20:29;;;;;;;0.80;0.80;;;9.50;87.20;;;;;;5045161;28;20319;-78
2020/12/14 08:22:56;;;;;;;1.10;0.70;;;9.60;87.10;;;;;;5047097;28;20346;-80
2020/12/14 08:25:24;;;;;;;0.43;0.43;;;9.60;87.20;;;;;;5052662;28;20039;-83
2020/12/14 08:28:02;;;;;;;0.52;0.52;;;9.60;87.10;;;;;;5049978;28;20036;-79
2020/12/14 08:30:28;;;;;;;0.60;0.60;;;9.70;87.20;;;;;;5052851;28;20048;-81
2020/12/14 08:33:27;;;;;;;0.50;0.50;;;9.60;87.10;;;;;;5049505;28;20013;-88
2020/12/14 08:35:54;;;;;;;0.77;0.77;;;9.70;87.00;;;;;;5045489;28;20119;-88
2020/12/14 08:38:22;;;;;;;0.50;0.50;;;9.70;87.30;;;;;;5034537;28;20026;-82
2020/12/14 08:40:54;;;;;;;0.85;0.85;;;9.70;87.30;;;;;;5028395;28;20027;-85
2020/12/14 08:43:21;;;;;;;0.80;0.80;;;9.80;87.40;;;;;;5046641;28;20027;-83
2020/12/14 08:46:00;;;;;;;0.80;0.80;;;9.70;87.30;;;;;;5031772;28;20029;-83
2020/12/14 08:48:27;;;;;;;0.60;0.60;;;9.80;87.30;;;;;;5051832;28;20502;-83
2020/12/14 08:51:07;;;;;;;0.68;0.68;;;9.80;87.40;;;;;;5053070;28;20513;-85
2020/12/14 08:53:33;;;;;;;;;;;9.80;87.40;;;;;;5046069;28;20047;-86
2020/12/14 08:56:16;;;;;;;0.38;0.38;;;9.80;87.20;;;;;;5039755;28;20330;-83
2020/12/14 08:58:51;;;;;;;0.60;0.60;;;9.90;87.50;;;;;;5047618;28;20041;-83
2020/12/14 09:01:22;;;;;;;1.63;0.77;;;9.90;87.50;;;;;;5047536;28;20112;-89
2020/12/14 09:03:59;;;;;;;0.63;0.60;;;10.00;87.50;;;;;;5051241;28;20037;-87
2020/12/14 09:06:46;;;;;;;0.43;0.43;;;10.00;87.50;;;;;;5031050;28;20183;-83
2020/12/14 22:42:45;;;;;;;1.05;1.05;;;9.20;88.50;;;;;;5079188;27;1048809;-83
2020/12/14 22:45:11;;;;;;;0.68;0.68;;;9.30;91.50;;;;;;5096643;28;20469;-84
2020/12/14 22:47:36;;;;;;;1.05;0.95;;;9.40;92.70;;;;;;5082747;28;20465;-84
2020/12/14 22:50:02;;;;;;;1.15;0.80;;;9.60;93.00;;;;;;5095812;28;20455;-83
2020/12/14 22:52:28;;;;;;;1.00;1.00;;;9.70;93.00;;;;;;5099264;28;20024;-83
2020/12/14 22:54:54;;;;;;;0.80;0.80;;;9.90;92.90;;;;;;5082448;28;20138;-84
2020/12/14 22:57:19;;;;;;;0.80;0.80;;;10.10;92.80;;;;;;5107062;28;20457;-83
2020/12/14 22:59:45;;;;;;;0.98;0.80;;;10.10;92.60;;;;;;5097525;28;20385;-84
2020/12/14 23:02:10;;;;;;;1.00;0.90;;;10.20;92.50;;;;;;5069469;28;20029;-84
2020/12/14 23:04:36;;;;;;;1.13;0.70;;;10.30;92.30;;;;;;5097308;28;20122;-83
2020/12/14 23:07:02;;;;;;;0.80;0.80;;;10.40;92.20;;;;;;5095914;28;20028;-84
2020/12/14 23:09:27;;;;;;;1.42;1.02;;;10.40;92.10;;;;;;5072994;28;20079;-83
2020/12/14 23:11:54;;;;;;;0.70;0.70;;;10.40;92.00;;;;;;5084107;28;20058;-83
2020/12/14 23:14:19;;;;;;;0.70;0.70;;;10.40;91.90;;;;;;5092847;28;20020;-82
2020/12/14 23:16:45;;;;;;;0.60;0.60;;;10.50;91.90;;;;;;5097325;28;20036;-82
2020/12/14 23:19:10;;;;;;;1.38;1.27;;;10.50;91.80;;;;;;5089888;28;20032;-82
2020/12/14 23:21:37;;;;;;;1.58;1.00;;;10.50;91.70;;;;;;5110542;28;20036;-82
2020/12/14 23:24:02;;;;;;;0.80;0.80;;;10.50;91.60;;;;;;5074771;28;20021;-83
2020/12/14 23:26:29;;;;;;;1.27;1.20;;;10.50;91.60;;;;;;5074754;28;20028;-83
2020/12/14 23:28:55;;;;;;;0.68;0.68;;;10.50;91.50;;;;;;5057495;28;20351;-82
2020/12/14 23:31:21;;;;;;;0.88;0.88;;;10.40;91.50;;;;;;5089956;28;20031;-84
2020/12/14 23:33:48;;;;;;;0.90;0.90;;;10.40;91.40;;;;;;5109442;28;20036;-84
2020/12/14 23:36:17;;;;;;;0.73;0.70;;;10.40;91.40;;;;;;5057676;28;20127;-85
2020/12/14 23:38:44;;;;;;;0.82;0.82;;;10.40;91.40;;;;;;5055400;28;20136;-83
2020/12/14 23:41:15;;;;;;;0.70;0.70;;;10.40;91.30;;;;;;5057483;28;20512;-83
2020/12/14 23:43:41;;;;;;;1.08;1.02;;;10.40;91.20;;;;;;5073345;28;20059;-84
2020/12/14 23:46:07;;;;;;;1.02;0.93;;;10.40;91.20;;;;;;5090201;28;20115;-84
2020/12/14 23:48:32;;;;;;;1.17;1.17;;;10.40;91.20;;;;;;5090953;28;20453;-83
2020/12/14 23:50:58;;;;;;;0.82;0.80;;;10.40;91.10;;;;;;5081357;28;20066;-83
2020/12/14 23:53:23;;;;;;;0.82;0.82;;;10.40;91.10;;;;;;5084494;28;20077;-83
2020/12/14 23:55:49;;;;;;;0.75;0.75;;;10.40;91.10;;;;;;5060664;28;20049;-83
2020/12/14 23:58:15;;;;;;;0.90;0.90;;;10.30;91.10;;;;;;5076913;28;20112;-84
